Historyczne dane pomiarowe

Dodano dane terminowe – wersja testowa.

Dane z okresu 1951-2019

Wersja bazy: 1.34 [2019-03-16, lista zmian], aktualizacja planowana na 2019-04-15

Dane meteo z obszaru Polski uzyskane na podstawie danych udostępnionych przez Instytut Meteorologii i Gospodarki Wodnej – Państwowy Instytut Badawczy.

 

Wybierz Datę:    

       

TemperaturaWilgotnośćWiatrCiśnienieOpadyŚniegCzas trwania zjawisk
 Stacja t tx tn tng RH VA  wxwx mslp ppp RRR   cm mm wxwxwxwxwxwxwx
1999-08-14 14.8 20.1 9.5 7.1 72.3- 5.7 4.0---- 0.0------------
1999-08-13 16.4 22.1 11.2 9.0 78.3- 5.7 2.0---- 0.0------------
1999-08-12 17.5 21.6 14.4 12.9 79.3- 4.7 3.3---- 0.0------------
1999-08-11 20.7 24.8 17.2 16.3 79.8- 3.7 4.3---- 0.0------------
1999-08-10 22.3 29.8 15.6 12.9 78.8- 3.0 1.7---- 26.7------------
1999-08-09 23.4 31.4 17.1 16.1 73.0- 1.7 1.0---- 0.0------------
1999-08-08 22.4 27.4 17.0 13.5 73.8- 6.3 2.3---- 0.0------------
1999-08-07 20.6 27.9 14.0 11.8 82.5- 1.0 1.0---- 0.0------------
1999-08-06 20.0 25.0 16.0 13.1 82.8- 5.3 2.3---- 0.0------------
1999-08-05 19.4 25.9 13.8 10.6 75.5- 3.7 0.7---- 0.0------------
1999-08-04 18.0 23.5 12.6 10.8 82.0- 5.3 1.0---- 0.0------------
1999-08-03 18.8 23.0 14.4 11.8 78.5- 6.3 1.3---- 0.0------------
1999-08-02 17.9 23.0 13.5 12.2 80.8- 6.7 2.3---- 0.0------------
1999-08-01 18.7 24.0 13.5 10.5 76.3- 6.7 2.7---- 0.6------------
1999-07-31 18.6 25.0 11.2 6.5 60.5- 3.7 2.7---- 0.0------------
1999-07-30 18.1 24.1 11.8 8.0 68.0- 1.7 4.7---- 0.0------------
1999-07-29 17.6 23.5 11.7 9.0 73.3- 1.0 3.3---- 0.0------------
1999-07-28 17.5 21.3 14.6 12.7 96.8- 7.7 2.3---- 13.8------------
1999-07-27 20.6 24.4 17.6 16.8 89.0- 6.7 2.3---- 1.3------------
1999-07-26 22.1 27.3 17.1 13.2 77.5- 7.0 3.0---- 5.7------------
1999-07-25 20.2 25.9 13.3 9.6 78.5- 3.3 1.0---- 0.0------------
1999-07-24 17.8 23.5 13.4 12.9 84.0- 5.3 1.0---- 0.0------------
1999-07-23 16.3 21.6 13.4 12.4 92.5- 8.0 2.0---- 7.5------------
1999-07-22 22.6 27.4 18.2 15.4 67.5- 6.3 1.3---- 0.1------------
1999-07-21 23.8 30.4 17.6 14.4 62.8- 1.3 2.0---- 0.0------------
1999-07-20 21.2 28.2 14.0 12.4 68.8- 0.7 3.0---- 0.0------------
1999-07-19 19.8 27.4 14.1 10.7 67.0- 6.7 2.7---- 0.6------------
1999-07-18 19.8 25.4 13.2 9.0 76.5- 2.7 2.7---- 0.0------------
1999-07-17 17.3 23.5 10.2 7.6 78.5- 3.0 1.0---- 0.0------------
1999-07-16 16.0 23.0 10.7 9.3 81.0- 2.7 3.7---- 0.0------------
1999-07-15 17.8 24.0 13.8 14.2 90.5- 7.3 3.7---- 9.0------------
1999-07-14 22.8 28.3 17.0 15.7 69.8- 5.3 3.7---- 0.1------------
1999-07-13 20.9 27.9 13.9 11.9 74.3- 6.0 3.0---- 0.0------------
1999-07-12 20.6 27.8 11.3 10.6 71.5- 4.7 2.3---- 0.0------------
1999-07-11 20.3 26.2 11.6 8.4 65.8- 1.0 2.3---- 0.0------------
1999-07-10 19.8 24.8 15.5 12.8 83.8- 2.0 5.3---- 0.0------------
1999-07-09 20.7 25.5 17.1 16.3 88.0- 4.7 4.3---- 0.0------------
1999-07-08 20.7 25.5 16.9 15.5 88.3- 7.7 3.3---- 14.5------------
1999-07-07 24.1 29.9 19.0 20.5 72.5- 4.0 3.0---- 0.0------------
1999-07-06 25.6 31.6 18.9 16.8 64.5- 1.3 3.3---- 0.0------------
1999-07-05 25.2 30.5 19.1 16.8 66.5- 0.7 2.0---- 0.0------------
1999-07-04 23.1 28.4 16.2 14.4 73.8- 0.7 2.0---- 0.0------------
1999-07-03 19.9 25.0 14.2 12.4 84.8- 3.0 1.0---- 0.0------------
1999-07-02 20.9 25.4 15.9 14.4 83.5- 4.3 1.0---- 0.0------------
1999-07-01 19.2 26.0 13.7 11.8 82.3- 6.0 1.3---- 4.9------------
1999-06-30 19.5 24.5 13.7 11.5 72.8- 1.7 2.0---- 0.0------------
1999-06-29 20.3 25.6 14.6 12.6 80.3- 5.0 5.0---- 0.0------------
1999-06-28 21.6 27.9 13.2 9.9 71.5- 2.0 0.7---- 0.0------------
1999-06-27 18.5 24.2 7.9 8.6 74.5- 1.0 2.3---- 0.0------------
1999-06-26 15.5 21.4 7.7 5.1 80.8- 1.7 1.0---- 0.0------------
1999-06-25 12.9 17.4 9.7 9.3 89.0- 5.0 2.3---- 1.2------------
1999-06-24 11.4 12.6 10.4 10.0 93.0- 7.7 3.0---- 8.2------------
1999-06-23 13.7 19.0 10.9 11.2 97.5- 8.0 2.3---- 6.9------------
1999-06-22 19.8 25.1 16.1 15.8 89.5- 5.7 2.0---- 0.4------------
1999-06-21 19.5 23.0 14.8 14.3 88.8- 7.3 0.0---- 22.0------------
1999-06-20 20.8 25.0 15.3 13.6 83.3- 1.3 1.7---- 0.0------------
1999-06-19 20.5 26.7 14.8 13.3 89.5- 3.3 1.7---- 0.0------------
1999-06-18 20.9 27.8 15.5 14.4 80.3- 4.7 2.0---- 1.7------------
1999-06-17 21.3 25.1 15.9 12.9 84.5- 4.7 0.3---- 1.4------------
1999-06-16 19.7 25.5 15.6 15.0 90.3- 5.7 2.0---- 9.3------------
547.5 ms

 

Źródłem pochodzenia danych jest Instytut Meteorologii i Gospodarki Wodnej – Państwowy Instytut Badawczy. Dane Instytutu Meteorologii i Gospodarki Wodnej – Państwowego Instytutu Badawczego zostały przetworzone.

Dane źródłowe można odnaleźć na stronie https://dane.imgw.pl